sensor_id;sensor_type;location;lat;lon;timestamp;P1;durP1;ratioP1;P2;durP2;ratioP2
17636;SDS011;8937;51.236;6.794;2023-05-10T00:03:09;3.57;;;3.30;;
17636;SDS011;8937;51.236;6.794;2023-05-10T00:11:32;3.67;;;3.37;;
17636;SDS011;8937;51.236;6.794;2023-05-10T00:19:53;4.13;;;3.73;;
17636;SDS011;8937;51.236;6.794;2023-05-10T00:28:16;3.83;;;3.53;;
17636;SDS011;8937;51.236;6.794;2023-05-10T00:36:37;4.10;;;3.70;;
17636;SDS011;8937;51.236;6.794;2023-05-10T00:45:00;3.97;;;3.67;;
17636;SDS011;8937;51.236;6.794;2023-05-10T00:53:22;3.47;;;3.20;;
17636;SDS011;8937;51.236;6.794;2023-05-10T01:01:44;3.53;;;3.23;;
17636;SDS011;8937;51.236;6.794;2023-05-10T01:10:06;2.93;;;2.73;;
17636;SDS011;8937;51.236;6.794;2023-05-10T01:18:30;3.97;;;2.83;;
17636;SDS011;8937;51.236;6.794;2023-05-10T01:27:01;3.27;;;2.97;;
17636;SDS011;8937;51.236;6.794;2023-05-10T01:35:26;2.43;;;2.30;;
17636;SDS011;8937;51.236;6.794;2023-05-10T01:43:53;2.93;;;2.73;;
17636;SDS011;8937;51.236;6.794;2023-05-10T01:52:18;3.03;;;2.83;;
17636;SDS011;8937;51.236;6.794;2023-05-10T02:00:42;4.90;;;3.67;;
17636;SDS011;8937;51.236;6.794;2023-05-10T02:09:05;3.90;;;3.50;;
17636;SDS011;8937;51.236;6.794;2023-05-10T02:17:28;3.40;;;3.10;;
17636;SDS011;8937;51.236;6.794;2023-05-10T02:25:51;3.57;;;3.07;;
17636;SDS011;8937;51.236;6.794;2023-05-10T02:34:12;2.90;;;2.70;;
17636;SDS011;8937;51.236;6.794;2023-05-10T02:42:37;3.40;;;3.10;;
17636;SDS011;8937;51.236;6.794;2023-05-10T02:51:00;4.40;;;2.77;;
17636;SDS011;8937;51.236;6.794;2023-05-10T02:59:26;2.87;;;2.67;;
17636;SDS011;8937;51.236;6.794;2023-05-10T03:07:48;3.03;;;2.60;;
17636;SDS011;8937;51.236;6.794;2023-05-10T03:16:12;2.80;;;2.63;;
17636;SDS011;8937;51.236;6.794;2023-05-10T03:24:36;2.80;;;2.60;;
17636;SDS011;8937;51.236;6.794;2023-05-10T03:33:05;2.90;;;2.63;;
17636;SDS011;8937;51.236;6.794;2023-05-10T03:41:27;3.00;;;2.80;;
17636;SDS011;8937;51.236;6.794;2023-05-10T03:49:49;3.43;;;3.13;;
17636;SDS011;8937;51.236;6.794;2023-05-10T03:58:11;4.23;;;3.57;;
17636;SDS011;8937;51.236;6.794;2023-05-10T04:06:33;7.37;;;3.97;;
17636;SDS011;8937;51.236;6.794;2023-05-10T04:14:55;4.87;;;3.90;;
17636;SDS011;8937;51.236;6.794;2023-05-10T04:23:17;4.73;;;4.23;;
17636;SDS011;8937;51.236;6.794;2023-05-10T04:31:39;6.00;;;4.80;;
17636;SDS011;8937;51.236;6.794;2023-05-10T04:40:02;9.63;;;5.67;;
17636;SDS011;8937;51.236;6.794;2023-05-10T04:48:24;9.87;;;5.37;;
17636;SDS011;8937;51.236;6.794;2023-05-10T04:56:46;8.90;;;6.00;;
17636;SDS011;8937;51.236;6.794;2023-05-10T05:05:08;8.17;;;5.90;;
17636;SDS011;8937;51.236;6.794;2023-05-10T05:13:31;8.33;;;6.20;;
17636;SDS011;8937;51.236;6.794;2023-05-10T05:21:52;6.57;;;5.40;;
17636;SDS011;8937;51.236;6.794;2023-05-10T05:30:15;8.43;;;5.77;;
17636;SDS011;8937;51.236;6.794;2023-05-10T05:38:36;11.43;;;5.87;;
17636;SDS011;8937;51.236;6.794;2023-05-10T05:46:59;6.77;;;5.23;;
17636;SDS011;8937;51.236;6.794;2023-05-10T05:55:21;6.90;;;4.97;;
17636;SDS011;8937;51.236;6.794;2023-05-10T06:03:43;7.00;;;4.87;;
17636;SDS011;8937;51.236;6.794;2023-05-10T06:12:05;5.57;;;4.67;;
17636;SDS011;8937;51.236;6.794;2023-05-10T06:20:28;6.17;;;4.57;;
17636;SDS011;8937;51.236;6.794;2023-05-10T06:28:51;6.80;;;5.43;;
17636;SDS011;8937;51.236;6.794;2023-05-10T06:37:14;8.83;;;6.30;;
17636;SDS011;8937;51.236;6.794;2023-05-10T06:45:35;7.03;;;5.53;;
17636;SDS011;8937;51.236;6.794;2023-05-10T06:53:58;7.93;;;5.60;;
17636;SDS011;8937;51.236;6.794;2023-05-10T07:02:19;6.03;;;5.17;;
17636;SDS011;8937;51.236;6.794;2023-05-10T07:10:42;10.43;;;5.50;;
17636;SDS011;8937;51.236;6.794;2023-05-10T07:19:03;11.60;;;6.27;;
17636;SDS011;8937;51.236;6.794;2023-05-10T07:27:27;9.93;;;6.27;;
17636;SDS011;8937;51.236;6.794;2023-05-10T07:35:49;11.87;;;6.07;;
17636;SDS011;8937;51.236;6.794;2023-05-10T07:44:12;6.97;;;4.97;;
17636;SDS011;8937;51.236;6.794;2023-05-10T07:52:33;7.00;;;4.83;;
17636;SDS011;8937;51.236;6.794;2023-05-10T08:00:56;11.30;;;6.70;;
17636;SDS011;8937;51.236;6.794;2023-05-10T08:09:17;16.10;;;9.33;;
17636;SDS011;8937;51.236;6.794;2023-05-10T08:17:45;15.30;;;9.17;;
17636;SDS011;8937;51.236;6.794;2023-05-10T08:26:06;16.07;;;9.33;;
17636;SDS011;8937;51.236;6.794;2023-05-10T08:34:29;15.37;;;9.67;;
17636;SDS011;8937;51.236;6.794;2023-05-10T08:42:53;18.98;;;10.93;;
17636;SDS011;8937;51.236;6.794;2023-05-10T08:51:18;16.20;;;10.27;;
17636;SDS011;8937;51.236;6.794;2023-05-10T08:59:41;15.23;;;10.17;;
17636;SDS011;8937;51.236;6.794;2023-05-10T09:08:04;14.70;;;9.73;;
17636;SDS011;8937;51.236;6.794;2023-05-10T09:16:25;12.80;;;7.17;;
17636;SDS011;8937;51.236;6.794;2023-05-10T09:24:48;9.27;;;6.85;;
17636;SDS011;8937;51.236;6.794;2023-05-10T09:33:24;8.82;;;6.88;;
17636;SDS011;8937;51.236;6.794;2023-05-10T09:41:47;10.18;;;6.75;;
17636;SDS011;8937;51.236;6.794;2023-05-10T09:50:09;9.45;;;5.97;;
17636;SDS011;8937;51.236;6.794;2023-05-10T09:58:32;7.22;;;5.72;;
17636;SDS011;8937;51.236;6.794;2023-05-10T10:07:01;11.77;;;5.68;;
17636;SDS011;8937;51.236;6.794;2023-05-10T10:15:24;7.65;;;5.43;;
17636;SDS011;8937;51.236;6.794;2023-05-10T10:23:45;7.70;;;5.32;;
17636;SDS011;8937;51.236;6.794;2023-05-10T10:32:09;8.57;;;5.43;;
17636;SDS011;8937;51.236;6.794;2023-05-10T10:40:33;7.15;;;5.68;;
17636;SDS011;8937;51.236;6.794;2023-05-10T10:49:09;7.00;;;5.90;;
17636;SDS011;8937;51.236;6.794;2023-05-10T10:57:31;6.97;;;5.45;;
17636;SDS011;8937;51.236;6.794;2023-05-10T11:05:57;8.10;;;6.10;;
17636;SDS011;8937;51.236;6.794;2023-05-10T11:14:21;9.10;;;6.67;;
17636;SDS011;8937;51.236;6.794;2023-05-10T11:22:51;8.07;;;6.50;;
17636;SDS011;8937;51.236;6.794;2023-05-10T11:31:13;8.43;;;7.03;;
17636;SDS011;8937;51.236;6.794;2023-05-10T11:39:36;9.32;;;7.20;;
17636;SDS011;8937;51.236;6.794;2023-05-10T11:47:58;8.52;;;6.45;;
17636;SDS011;8937;51.236;6.794;2023-05-10T11:56:20;12.02;;;7.50;;
17636;SDS011;8937;51.236;6.794;2023-05-10T12:04:43;7.13;;;6.05;;
17636;SDS011;8937;51.236;6.794;2023-05-10T12:13:06;6.85;;;6.03;;
17636;SDS011;8937;51.236;6.794;2023-05-10T12:21:32;8.13;;;6.88;;
17636;SDS011;8937;51.236;6.794;2023-05-10T12:29:55;8.02;;;6.35;;
17636;SDS011;8937;51.236;6.794;2023-05-10T12:38:24;8.70;;;7.03;;
17636;SDS011;8937;51.236;6.794;2023-05-10T12:46:47;7.03;;;6.25;;
17636;SDS011;8937;51.236;6.794;2023-05-10T12:55:08;9.02;;;6.38;;
17636;SDS011;8937;51.236;6.794;2023-05-10T13:03:31;9.95;;;6.18;;
17636;SDS011;8937;51.236;6.794;2023-05-10T13:11:53;7.63;;;6.40;;
17636;SDS011;8937;51.236;6.794;2023-05-10T13:20:16;8.00;;;7.20;;
17636;SDS011;8937;51.236;6.794;2023-05-10T13:28:37;8.70;;;6.30;;
17636;SDS011;8937;51.236;6.794;2023-05-10T13:37:02;5.93;;;5.35;;
17636;SDS011;8937;51.236;6.794;2023-05-10T13:45:24;5.47;;;4.97;;
17636;SDS011;8937;51.236;6.794;2023-05-10T13:53:46;6.53;;;5.88;;
17636;SDS011;8937;51.236;6.794;2023-05-10T14:02:08;5.90;;;4.95;;
17636;SDS011;8937;51.236;6.794;2023-05-10T14:10:31;7.05;;;5.97;;
17636;SDS011;8937;51.236;6.794;2023-05-10T14:18:52;6.85;;;5.90;;
17636;SDS011;8937;51.236;6.794;2023-05-10T14:27:15;6.22;;;5.63;;
17636;SDS011;8937;51.236;6.794;2023-05-10T14:35:36;7.47;;;5.40;;
17636;SDS011;8937;51.236;6.794;2023-05-10T14:43:59;4.40;;;3.95;;
17636;SDS011;8937;51.236;6.794;2023-05-10T14:52:20;4.32;;;3.90;;
17636;SDS011;8937;51.236;6.794;2023-05-10T15:00:43;4.03;;;3.53;;
17636;SDS011;8937;51.236;6.794;2023-05-10T15:09:04;3.45;;;3.15;;
17636;SDS011;8937;51.236;6.794;2023-05-10T15:17:27;3.35;;;2.95;;
17636;SDS011;8937;51.236;6.794;2023-05-10T15:25:49;3.10;;;2.90;;
17636;SDS011;8937;51.236;6.794;2023-05-10T15:34:13;2.83;;;2.63;;
17636;SDS011;8937;51.236;6.794;2023-05-10T15:42:34;3.05;;;2.85;;
17636;SDS011;8937;51.236;6.794;2023-05-10T15:50:57;2.83;;;2.67;;
17636;SDS011;8937;51.236;6.794;2023-05-10T15:59:19;3.03;;;2.83;;
17636;SDS011;8937;51.236;6.794;2023-05-10T16:07:41;3.33;;;3.05;;
17636;SDS011;8937;51.236;6.794;2023-05-10T16:16:03;3.00;;;2.80;;
17636;SDS011;8937;51.236;6.794;2023-05-10T16:24:26;2.60;;;2.40;;
17636;SDS011;8937;51.236;6.794;2023-05-10T16:32:48;2.60;;;1.90;;
17636;SDS011;8937;51.236;6.794;2023-05-10T16:41:11;2.45;;;1.70;;
17636;SDS011;8937;51.236;6.794;2023-05-10T16:49:32;2.38;;;1.60;;
17636;SDS011;8937;51.236;6.794;2023-05-10T16:57:55;1.60;;;1.50;;
17636;SDS011;8937;51.236;6.794;2023-05-10T17:06:19;1.23;;;1.17;;
17636;SDS011;8937;51.236;6.794;2023-05-10T17:14:42;2.93;;;1.70;;
17636;SDS011;8937;51.236;6.794;2023-05-10T17:23:03;2.33;;;1.60;;
17636;SDS011;8937;51.236;6.794;2023-05-10T17:31:26;2.50;;;1.70;;
17636;SDS011;8937;51.236;6.794;2023-05-10T17:39:47;1.80;;;1.70;;
17636;SDS011;8937;51.236;6.794;2023-05-10T17:48:10;2.30;;;2.10;;
17636;SDS011;8937;51.236;6.794;2023-05-10T17:56:32;1.40;;;1.40;;
17636;SDS011;8937;51.236;6.794;2023-05-10T18:04:55;2.40;;;2.20;;
17636;SDS011;8937;51.236;6.794;2023-05-10T18:13:17;1.97;;;1.87;;
17636;SDS011;8937;51.236;6.794;2023-05-10T18:21:39;2.13;;;2.03;;
17636;SDS011;8937;51.236;6.794;2023-05-10T18:30:01;2.07;;;1.97;;
17636;SDS011;8937;51.236;6.794;2023-05-10T18:38:24;2.17;;;2.07;;
17636;SDS011;8937;51.236;6.794;2023-05-10T18:46:45;1.93;;;1.83;;
17636;SDS011;8937;51.236;6.794;2023-05-10T18:55:08;2.10;;;2.00;;
17636;SDS011;8937;51.236;6.794;2023-05-10T19:03:31;3.80;;;2.73;;
17636;SDS011;8937;51.236;6.794;2023-05-10T19:11:54;3.37;;;3.17;;
17636;SDS011;8937;51.236;6.794;2023-05-10T19:20:15;3.20;;;2.90;;
17636;SDS011;8937;51.236;6.794;2023-05-10T19:28:38;2.57;;;2.43;;
17636;SDS011;8937;51.236;6.794;2023-05-10T19:37:00;3.00;;;2.80;;
17636;SDS011;8937;51.236;6.794;2023-05-10T19:45:22;3.17;;;2.80;;
17636;SDS011;8937;51.236;6.794;2023-05-10T19:53:44;2.77;;;2.57;;
17636;SDS011;8937;51.236;6.794;2023-05-10T20:02:08;2.33;;;2.23;;
17636;SDS011;8937;51.236;6.794;2023-05-10T20:10:29;3.47;;;3.17;;
17636;SDS011;8937;51.236;6.794;2023-05-10T20:18:52;3.27;;;2.47;;
17636;SDS011;8937;51.236;6.794;2023-05-10T20:27:14;3.30;;;3.10;;
17636;SDS011;8937;51.236;6.794;2023-05-10T20:35:37;3.43;;;2.67;;
17636;SDS011;8937;51.236;6.794;2023-05-10T20:43:58;2.60;;;2.43;;
17636;SDS011;8937;51.236;6.794;2023-05-10T20:52:21;2.90;;;2.60;;
17636;SDS011;8937;51.236;6.794;2023-05-10T21:00:43;2.87;;;2.43;;
17636;SDS011;8937;51.236;6.794;2023-05-10T21:09:06;2.73;;;2.30;;
17636;SDS011;8937;51.236;6.794;2023-05-10T21:17:27;3.03;;;2.50;;
17636;SDS011;8937;51.236;6.794;2023-05-10T21:25:50;4.17;;;3.40;;
17636;SDS011;8937;51.236;6.794;2023-05-10T21:34:12;3.63;;;3.33;;
17636;SDS011;8937;51.236;6.794;2023-05-10T21:42:35;4.27;;;3.57;;
17636;SDS011;8937;51.236;6.794;2023-05-10T21:50:56;3.33;;;3.03;;
17636;SDS011;8937;51.236;6.794;2023-05-10T21:59:19;4.43;;;4.03;;
17636;SDS011;8937;51.236;6.794;2023-05-10T22:07:41;11.10;;;4.40;;
17636;SDS011;8937;51.236;6.794;2023-05-10T22:16:04;4.73;;;4.33;;
17636;SDS011;8937;51.236;6.794;2023-05-10T22:24:25;7.70;;;5.30;;
17636;SDS011;8937;51.236;6.794;2023-05-10T22:32:48;6.43;;;4.97;;
17636;SDS011;8937;51.236;6.794;2023-05-10T22:41:09;6.63;;;5.43;;
17636;SDS011;8937;51.236;6.794;2023-05-10T22:49:32;6.30;;;5.23;;
17636;SDS011;8937;51.236;6.794;2023-05-10T22:57:54;5.43;;;4.93;;
17636;SDS011;8937;51.236;6.794;2023-05-10T23:06:17;7.23;;;4.67;;
17636;SDS011;8937;51.236;6.794;2023-05-10T23:14:38;5.13;;;4.00;;
17636;SDS011;8937;51.236;6.794;2023-05-10T23:23:01;5.07;;;4.47;;
17636;SDS011;8937;51.236;6.794;2023-05-10T23:31:23;5.90;;;5.13;;
17636;SDS011;8937;51.236;6.794;2023-05-10T23:39:45;5.03;;;4.53;;
17636;SDS011;8937;51.236;6.794;2023-05-10T23:48:07;7.03;;;6.00;;
17636;SDS011;8937;51.236;6.794;2023-05-10T23:56:29;7.00;;;5.83;;
